Orleans, Minnesota
Current Conditions -  °F | °C
As of 11:53 AM on Saturday 22 Nov 2014 (Local Time) from KHCO Reporting Station
NA  
Wind Chill: 30°   Ceiling: NA
Heat Index: 34°   Visibility: 10mi
Dew Point: 28°   Wind: 5mph
Humidity: 81%   Direction: 110°ESE
Pressure: 29.55"   Gusts: NA
Location:  48.9114°N, 96.8428°W
Report Text: KHCO 221753Z AUTO 11004KT 10SM 01/M02 A2955 RMK AO2
Loading
Personal Weather Stations






























Interactive Weather Map New forecast layout! Learn more

10-Day Weather Forecast

Advertisements
Track Severe Weather on mobile